Time;durP1;ratioP1;P1;durP2;ratioP2;P2;SDS_P1;SDS_P2;PMS_P1;PMS_P2;Temp;Humidity;BMP_temperature;BMP_pressure;BME280_temperature;BME280_humidity;BME280_pressure;Samples;Min_cycle;Max_cycle;Signal;HPM_P1;HPM_P2
2021/06/04 00:00:42;;;;;;;;;;;16.10;92.50;;;;;;5013054;28;20349;-68
2021/06/04 00:03:07;;;;;;;;;;;16.10;92.70;;;;;;5011697;28;19921;-69
2021/06/04 00:05:35;;;;;;;;;;;16.00;92.70;;;;;;5019788;28;19917;-68
2021/06/04 00:08:01;;;;;;;;;;;16.10;92.80;;;;;;5019542;28;19917;-69
2021/06/04 00:10:28;;;;;;;;;;;16.10;92.70;;;;;;5019420;28;19924;-69
2021/06/04 00:12:53;;;;;;;;;;;16.10;91.90;;;;;;5019303;28;20000;-70
2021/06/04 00:15:24;;;;;;;;;;;16.10;92.10;;;;;;5020258;28;20448;-68
2021/06/04 00:17:50;;;;;;;;;;;16.20;92.60;;;;;;5019501;28;19974;-69
2021/06/04 00:20:19;;;;;;;;;;;16.20;92.70;;;;;;5019860;28;19947;-69
2021/06/04 00:22:44;;;;;;;;;;;16.30;92.40;;;;;;5017050;28;20301;-67
2021/06/04 00:25:10;;;;;;;;;;;16.30;92.30;;;;;;5019396;28;19940;-68
2021/06/04 00:27:36;;;;;;;;;;;16.30;91.80;;;;;;5018290;28;20008;-68
2021/06/04 00:30:03;;;;;;;;;;;16.30;92.00;;;;;;5020200;28;20660;-68
2021/06/04 00:32:29;;;;;;;;;;;16.40;92.00;;;;;;5026386;28;20233;-69
2021/06/04 00:34:54;;;;;;;;;;;16.40;92.40;;;;;;5018635;28;20010;-69
2021/06/04 00:37:20;;;;;;;;;;;16.40;92.10;;;;;;5020626;28;19980;-68
2021/06/04 00:39:46;;;;;;;;;;;16.40;92.10;;;;;;5022990;28;20302;-69
2021/06/04 00:42:14;;;;;;;;;;;16.40;92.10;;;;;;5023456;28;20285;-67
2021/06/04 00:44:40;;;;;;;;;;;16.40;91.90;;;;;;5021657;28;20728;-69
2021/06/04 00:47:06;;;;;;;;;;;16.50;91.80;;;;;;5021518;28;20050;-68
2021/06/04 00:49:32;;;;;;;;;;;16.50;91.80;;;;;;5022846;28;19913;-69
2021/06/04 00:52:03;;;;;;;;;;;16.50;91.70;;;;;;5020967;28;19936;-68
2021/06/04 00:54:29;;;;;;;;;;;16.50;91.70;;;;;;5022052;28;19924;-68
2021/06/04 00:56:55;;;;;;;;;;;16.50;91.50;;;;;;5023475;28;20334;-69
2021/06/04 00:59:28;;;;;;;;;;;16.60;91.50;;;;;;5023278;28;19928;-69
2021/06/04 01:01:54;;;;;;;;;;;16.60;91.50;;;;;;5020526;28;20337;-68
2021/06/04 01:04:22;;;;;;;;;;;16.60;91.20;;;;;;5024749;28;20442;-70
2021/06/04 01:06:50;;;;;;;;;;;16.60;91.30;;;;;;5024716;28;19913;-68
2021/06/04 01:09:18;;;;;;;;;;;16.60;91.20;;;;;;5025391;28;19999;-69
2021/06/04 01:12:01;;;;;;;;;;;16.50;91.30;;;;;;5023203;28;19917;-69
2021/06/04 01:14:27;;;;;;;;;;;16.50;91.30;;;;;;5023406;28;20020;-69
2021/06/04 01:17:13;;;;;;;;;;;16.50;91.40;;;;;;5023490;28;20272;-68
2021/06/04 01:19:42;;;;;;;;;;;16.50;91.50;;;;;;5021340;28;19971;-70
2021/06/04 01:22:10;;;;;;;;;;;16.50;91.60;;;;;;5018040;28;19924;-69
2021/06/04 01:24:44;;;;;;;;;;;16.50;91.50;;;;;;5026205;28;20215;-69
2021/06/04 01:27:17;;;;;;;;;;;16.50;91.70;;;;;;5023852;28;19926;-69
2021/06/04 01:29:50;;;;;;;;;;;16.50;91.70;;;;;;5024985;28;19913;-68
2021/06/04 01:32:20;;;;;;;;;;;16.40;92.00;;;;;;5022642;28;19935;-70
2021/06/04 01:34:49;;;;;;;;;;;16.40;92.00;;;;;;5020991;28;20001;-69
2021/06/04 01:37:20;;;;;;;;;;;16.30;91.50;;;;;;5024443;28;19964;-70
2021/06/04 01:39:48;;;;;;;;;;;16.30;91.80;;;;;;5023444;28;19936;-69
2021/06/04 01:42:15;;;;;;;;;;;16.30;91.60;;;;;;5020103;28;19914;-67
2021/06/04 01:44:43;;;;;;;;;;;16.30;91.50;;;;;;5016285;28;20156;-69
2021/06/04 01:47:11;;;;;;;;;;;16.30;91.90;;;;;;5024025;28;21467;-70
2021/06/04 01:49:39;;;;;;;;;;;16.30;92.00;;;;;;5021671;28;20305;-68
2021/06/04 01:52:22;;;;;;;;;;;16.30;92.50;;;;;;5020070;28;19957;-69
2021/06/04 01:54:50;;;;;;;;;;;16.30;92.30;;;;;;5019871;28;19961;-69
2021/06/04 01:57:16;;;;;;;;;;;16.30;92.50;;;;;;5023010;28;20022;-68
2021/06/04 01:59:45;;;;;;;;;;;16.30;92.70;;;;;;5015087;28;19913;-68
2021/06/04 02:02:11;;;;;;;;;;;16.30;92.50;;;;;;5019679;28;19921;-69
2021/06/04 02:04:38;;;;;;;;;;;16.20;92.20;;;;;;5023890;28;20055;-69
2021/06/04 02:07:05;;;;;;;;;;;16.30;92.30;;;;;;5024183;28;20346;-68
2021/06/04 02:09:30;;;;;;;;;;;16.30;92.60;;;;;;5023603;28;20025;-70
2021/06/04 02:11:56;;;;;;;;;;;16.20;92.30;;;;;;5020054;28;19925;-69
2021/06/04 02:14:26;;;;;;;;;;;16.20;92.40;;;;;;5014747;28;19948;-69
2021/06/04 02:17:06;;;;;;;;;;;16.10;92.60;;;;;;5024580;28;19913;-69
2021/06/04 02:19:40;;;;;;;;;;;16.10;92.70;;;;;;5022794;28;19913;-67
2021/06/04 02:22:09;;;;;;;;;;;16.10;92.60;;;;;;5021137;28;20317;-69
2021/06/04 02:24:52;;;;;;;;;;;16.00;92.80;;;;;;5023999;28;19913;-70
2021/06/04 02:27:19;;;;;;;;;;;16.00;93.00;;;;;;5014842;28;19909;-70
2021/06/04 02:29:50;;;;;;;;;;;15.80;92.70;;;;;;5022344;28;19999;-69
2021/06/04 02:32:48;;;;;;;;;;;15.80;93.30;;;;;;5021953;28;19920;-70
2021/06/04 02:35:16;;;;;;;;;;;15.60;93.20;;;;;;5007442;28;19913;-69
2021/06/04 02:37:44;;;;;;;;;;;15.60;93.60;;;;;;5023091;28;19967;-70
2021/06/04 02:40:10;;;;;;;;;;;15.50;93.40;;;;;;5017701;28;19925;-70
2021/06/04 02:42:40;;;;;;;;;;;15.40;93.60;;;;;;5022449;28;20441;-69
2021/06/04 02:45:09;;;;;;;;;;;15.30;93.30;;;;;;5022679;28;20431;-69
2021/06/04 02:47:39;;;;;;;;;;;15.20;93.90;;;;;;5021336;28;20058;-70
2021/06/04 02:50:14;;;;;;;;;;;15.10;94.30;;;;;;5018463;28;19935;-70
2021/06/04 02:52:42;;;;;;;;;;;15.10;94.50;;;;;;5020217;28;20347;-68
2021/06/04 02:55:22;;;;;;;;;;;15.00;94.70;;;;;;5021209;28;20359;-70
2021/06/04 02:57:48;;;;;;;;;;;15.00;94.80;;;;;;5014280;28;20436;-69
2021/06/04 03:00:16;;;;;;;;;;;14.90;94.80;;;;;;5018989;28;20228;-70
2021/06/04 03:02:42;;;;;;;;;;;14.90;94.80;;;;;;5013795;28;20024;-68
2021/06/04 03:05:10;;;;;;;;;;;14.80;94.70;;;;;;5020419;28;19917;-69
2021/06/04 03:07:39;;;;;;;;;;;14.80;95.00;;;;;;5022628;28;20260;-70
2021/06/04 03:10:25;;;;;;;;;;;14.80;95.20;;;;;;5018880;28;19929;-69
2021/06/04 03:12:51;;;;;;;;;;;14.70;95.10;;;;;;5015541;28;19917;-70
2021/06/04 03:15:20;;;;;;;;;;;14.70;95.20;;;;;;5020592;28;19917;-69
2021/06/04 03:17:46;;;;;;;;;;;14.70;95.40;;;;;;5021607;28;19933;-69
2021/06/04 03:20:14;;;;;;;;;;;14.60;95.20;;;;;;5020190;28;19928;-68
2021/06/04 03:22:41;;;;;;;;;;;14.60;95.20;;;;;;5017800;28;19929;-69
2021/06/04 03:25:11;;;;;;;;;;;14.60;95.30;;;;;;5022994;28;20369;-68
2021/06/04 03:27:36;;;;;;;;;;;14.60;95.40;;;;;;5022310;28;20373;-68
2021/06/04 03:30:05;;;;;;;;;;;14.60;95.50;;;;;;5022301;28;19917;-68
2021/06/04 03:32:30;;;;;;;;;;;14.50;95.30;;;;;;5016787;28;19917;-68
2021/06/04 03:34:56;;;;;;;;;;;14.60;95.40;;;;;;5021262;28;20035;-68
2021/06/04 03:37:22;;;;;;;;;;;14.60;95.50;;;;;;5018986;28;20370;-67
2021/06/04 03:39:47;;;;;;;;;;;14.60;95.70;;;;;;5022730;28;19921;-68
2021/06/04 03:42:22;;;;;;;;;;;14.50;95.50;;;;;;5021318;28;20000;-68
2021/06/04 03:44:51;;;;;;;;;;;14.60;95.60;;;;;;5018076;28;19963;-67
2021/06/04 03:47:17;;;;;;;;;;;14.50;95.50;;;;;;5021518;28;19956;-69
2021/06/04 03:49:43;;;;;;;;;;;14.60;95.50;;;;;;5023128;28;19917;-67
2021/06/04 03:52:10;;;;;;;;;;;14.60;95.30;;;;;;5014257;28;19914;-69
2021/06/04 03:54:38;;;;;;;;;;;14.60;95.40;;;;;;5016463;28;19984;-68
2021/06/04 03:57:06;;;;;;;;;;;14.60;95.70;;;;;;5019324;28;19921;-68
2021/06/04 03:59:31;;;;;;;;;;;14.60;95.50;;;;;;5027072;28;20000;-69
2021/06/04 04:02:01;;;;;;;;;;;14.70;95.50;;;;;;5017655;28;19946;-68
2021/06/04 04:04:26;;;;;;;;;;;14.60;95.10;;;;;;5018444;28;19979;-68
2021/06/04 04:06:52;;;;;;;;;;;14.70;95.30;;;;;;5020155;28;19917;-69
2021/06/04 04:09:18;;;;;;;;;;;14.80;95.50;;;;;;5021772;28;19925;-68
2021/06/04 04:11:44;;;;;;;;;;;14.90;95.90;;;;;;5016092;28;19921;-68
2021/06/04 04:14:10;;;;;;;;;;;15.00;96.10;;;;;;5025255;28;19974;-69
2021/06/04 04:16:36;;;;;;;;;;;15.10;96.20;;;;;;5021769;28;19917;-68
2021/06/04 04:19:02;;;;;;;;;;;15.20;95.90;;;;;;5023478;28;19914;-68
2021/06/04 04:21:27;;;;;;;;;;;15.30;95.90;;;;;;5022447;28;20087;-68
2021/06/04 04:23:55;;;;;;;;;;;15.40;95.70;;;;;;5022767;28;20405;-67
2021/06/04 04:26:23;;;;;;;;;;;15.30;95.50;;;;;;5021679;28;19939;-68
2021/06/04 04:28:49;;;;;;;;;;;15.40;95.40;;;;;;5023905;28;20029;-68
2021/06/04 04:31:16;;;;;;;;;;;15.50;95.40;;;;;;5024246;28;20017;-69
2021/06/04 04:33:42;;;;;;;;;;;15.50;95.40;;;;;;5024179;28;19928;-70
2021/06/04 04:36:08;;;;;;;;;;;15.50;95.30;;;;;;5020487;28;20331;-69
2021/06/04 04:38:34;;;;;;;;;;;15.60;95.50;;;;;;5024145;28;20098;-71
2021/06/04 04:41:01;;;;;;;;;;;15.70;95.40;;;;;;5020714;28;20118;-68
2021/06/04 04:43:28;;;;;;;;;;;15.70;95.30;;;;;;5020103;28;19927;-67
2021/06/04 04:45:54;;;;;;;;;;;15.80;95.20;;;;;;5023222;28;19917;-68
2021/06/04 04:48:20;;;;;;;;;;;15.80;95.00;;;;;;5023135;28;19960;-68
2021/06/04 04:50:46;;;;;;;;;;;15.90;95.20;;;;;;5023709;28;20476;-68
2021/06/04 04:53:11;;;;;;;;;;;16.00;95.00;;;;;;5015880;28;21602;-67
2021/06/04 04:55:39;;;;;;;;;;;16.00;95.00;;;;;;5020763;28;19998;-69
2021/06/04 04:58:04;;;;;;;;;;;16.10;94.80;;;;;;5023726;28;19917;-67
2021/06/04 05:00:30;;;;;;;;;;;16.20;94.30;;;;;;5023135;28;19924;-70
2021/06/04 05:02:57;;;;;;;;;;;16.40;93.80;;;;;;5023368;28;20026;-69
2021/06/04 05:05:23;;;;;;;;;;;16.40;93.50;;;;;;5024364;28;20314;-66
2021/06/04 05:07:49;;;;;;;;;;;16.50;93.20;;;;;;5024415;28;19921;-67
2021/06/04 05:10:15;;;;;;;;;;;16.60;92.60;;;;;;5021769;28;20248;-67
2021/06/04 05:12:40;;;;;;;;;;;16.70;92.30;;;;;;5022077;28;20288;-70
2021/06/04 05:15:09;;;;;;;;;;;16.80;92.10;;;;;;5023711;28;19917;-67
2021/06/04 05:17:34;;;;;;;;;;;17.00;91.10;;;;;;5022088;28;19943;-69
2021/06/04 05:20:00;;;;;;;;;;;17.10;90.70;;;;;;5026225;28;20444;-68
2021/06/04 05:22:26;;;;;;;;;;;17.30;90.20;;;;;;5022209;28;19925;-68
2021/06/04 05:24:53;;;;;;;;;;;17.30;90.80;;;;;;5016780;28;19924;-68
2021/06/04 05:27:18;;;;;;;;;;;17.40;90.40;;;;;;5024864;28;19920;-68
2021/06/04 05:29:44;;;;;;;;;;;17.50;89.00;;;;;;5025790;28;19914;-68
2021/06/04 05:32:09;;;;;;;;;;;17.70;88.50;;;;;;5025247;28;20271;-67
2021/06/04 05:34:36;;;;;;;;;;;17.70;88.70;;;;;;5025852;28;20181;-68
2021/06/04 05:37:02;;;;;;;;;;;17.80;88.80;;;;;;5024086;28;19924;-67
2021/06/04 05:39:27;;;;;;;;;;;17.80;89.10;;;;;;5025286;28;19998;-68
2021/06/04 05:41:55;;;;;;;;;;;18.00;87.70;;;;;;5020134;28;20008;-68
2021/06/04 05:44:23;;;;;;;;;;;18.10;87.50;;;;;;5023119;28;20400;-69
2021/06/04 05:46:49;;;;;;;;;;;18.20;88.10;;;;;;5040573;28;19960;-69
2021/06/04 05:49:15;;;;;;;;;;;18.30;87.00;;;;;;5022345;28;19928;-69
2021/06/04 05:51:41;;;;;;;;;;;18.40;87.50;;;;;;5023493;28;19921;-70
2021/06/04 05:54:07;;;;;;;;;;;18.50;87.20;;;;;;5023878;28;19920;-68
2021/06/04 05:56:32;;;;;;;;;;;18.60;87.50;;;;;;5020134;28;20183;-67
2021/06/04 05:58:58;;;;;;;;;;;18.70;86.30;;;;;;5025417;28;19944;-68
2021/06/04 06:01:27;;;;;;;;;;;18.90;85.50;;;;;;5024325;28;20330;-68
2021/06/04 06:03:52;;;;;;;;;;;19.00;85.10;;;;;;5024778;28;19944;-68
2021/06/04 06:06:18;;;;;;;;;;;19.10;85.80;;;;;;5025524;28;19928;-68
2021/06/04 06:08:44;;;;;;;;;;;19.30;83.00;;;;;;5019661;28;19932;-68
2021/06/04 06:11:09;;;;;;;;;;;19.40;82.40;;;;;;5024797;28;19909;-68
2021/06/04 06:13:35;;;;;;;;;;;19.50;81.40;;;;;;5022382;28;19913;-68
2021/06/04 06:16:00;;;;;;;;;;;19.50;82.20;;;;;;5023863;28;19943;-68
2021/06/04 06:18:27;;;;;;;;;;;19.70;81.30;;;;;;5022018;28;19925;-71
2021/06/04 06:20:53;;;;;;;;;;;19.70;80.70;;;;;;5020027;28;19921;-71
2021/06/04 06:23:21;;;;;;;;;;;19.90;79.60;;;;;;5021718;28;19936;-68
2021/06/04 06:25:48;;;;;;;;;;;20.00;80.50;;;;;;5017471;28;20003;-68
2021/06/04 06:28:16;;;;;;;;;;;20.10;80.20;;;;;;5021892;28;19924;-68
2021/06/04 06:30:42;;;;;;;;;;;20.30;81.40;;;;;;5010279;28;19928;-70
2021/06/04 06:33:07;;;;;;;;;;;20.40;78.50;;;;;;5022364;28;19960;-68
2021/06/04 06:35:40;;;;;;;;;;;20.60;79.50;;;;;;5021945;28;19913;-68
2021/06/04 06:38:06;;;;;;;;;;;20.60;78.00;;;;;;5022894;28;19932;-69
2021/06/04 06:40:32;;;;;;;;;;;20.50;75.50;;;;;;5023174;28;20231;-70
2021/06/04 06:42:57;;;;;;;;;;;20.70;78.40;;;;;;5021192;28;19917;-67
2021/06/04 06:45:24;;;;;;;;;;;20.90;77.30;;;;;;5021669;28;19919;-68
2021/06/04 06:47:50;;;;;;;;;;;21.30;77.10;;;;;;5023127;28;19924;-68
2021/06/04 06:50:16;;;;;;;;;;;21.50;74.30;;;;;;5023887;28;20314;-69
2021/06/04 06:52:41;;;;;;;;;;;21.50;72.60;;;;;;5022485;28;20016;-68
2021/06/04 06:55:08;;;;;;;;;;;21.30;74.20;;;;;;5023478;28;19956;-71
2021/06/04 06:57:34;;;;;;;;;;;21.40;73.40;;;;;;5021235;28;19917;-69
2021/06/04 06:59:59;;;;;;;;;;;21.70;73.90;;;;;;5019430;28;20425;-69
2021/06/04 07:02:25;;;;;;;;;;;21.80;73.10;;;;;;5022539;28;20401;-68
2021/06/04 07:04:50;;;;;;;;;;;22.00;72.10;;;;;;5012637;28;20004;-68
2021/06/04 07:07:18;;;;;;;;;;;22.10;71.60;;;;;;5018097;28;19947;-68
2021/06/04 07:09:47;;;;;;;;;;;22.20;71.80;;;;;;5023803;28;20051;-68
2021/06/04 07:12:12;;;;;;;;;;;22.70;72.60;;;;;;5022358;28;20441;-69
2021/06/04 07:14:39;;;;;;;;;;;22.80;67.60;;;;;;5022681;28;20000;-70
2021/06/04 07:17:05;;;;;;;;;;;22.80;69.70;;;;;;5023072;28;19987;-69
2021/06/04 07:19:31;;;;;;;;;;;22.90;69.00;;;;;;5023340;28;19928;-70
2021/06/04 07:21:56;;;;;;;;;;;23.10;68.40;;;;;;5021389;28;20405;-69
2021/06/04 07:24:22;;;;;;;;;;;23.20;66.90;;;;;;5022894;28;20005;-69
2021/06/04 07:26:51;;;;;;;;;;;23.80;66.10;;;;;;5021129;28;20020;-69
2021/06/04 07:29:18;;;;;;;;;;;23.50;65.40;;;;;;5016054;28;19940;-68
2021/06/04 07:31:44;;;;;;;;;;;23.30;63.30;;;;;;5019309;28;20067;-67
2021/06/04 07:34:09;;;;;;;;;;;23.20;64.50;;;;;;5015879;28;20118;-70
2021/06/04 07:36:38;;;;;;;;;;;23.20;65.40;;;;;;5017421;28;20011;-68
2021/06/04 07:39:06;;;;;;;;;;;23.70;67.40;;;;;;5019383;28;19921;-69
2021/06/04 07:41:32;;;;;;;;;;;24.00;62.30;;;;;;5020664;28;19917;-68
2021/06/04 07:43:57;;;;;;;;;;;24.20;61.40;;;;;;5021965;28;19932;-69
2021/06/04 07:46:23;;;;;;;;;;;24.40;60.70;;;;;;5022120;28;20443;-70
2021/06/04 07:48:49;;;;;;;;;;;24.50;63.00;;;;;;5018817;28;19927;-69
2021/06/04 07:51:16;;;;;;;;;;;24.60;61.00;;;;;;5016813;28;20366;-69
2021/06/04 07:53:42;;;;;;;;;;;25.00;60.50;;;;;;5015149;28;19963;-70
2021/06/04 07:56:09;;;;;;;;;;;24.70;58.70;;;;;;5017722;28;19945;-68
2021/06/04 07:58:34;;;;;;;;;;;24.50;57.90;;;;;;5011723;28;19944;-69
2021/06/04 08:01:02;;;;;;;;;;;24.70;58.00;;;;;;5020721;28;20330;-69
2021/06/04 08:03:28;;;;;;;;;;;24.80;57.10;;;;;;5015962;28;20007;-69
2021/06/04 08:05:54;;;;;;;;;;;24.40;54.60;;;;;;5018686;28;19920;-68
2021/06/04 08:08:20;;;;;;;;;;;24.50;58.20;;;;;;5022096;28;19917;-71
2021/06/04 08:10:46;;;;;;;;;;;25.10;54.10;;;;;;5013814;28;20063;-70
2021/06/04 08:13:15;;;;;;;;;;;25.20;53.60;;;;;;5021014;28;20036;-70
2021/06/04 08:15:45;;;;;;;;;;;25.20;53.50;;;;;;5016412;28;20015;-68
2021/06/04 08:18:11;;;;;;;;;;;25.00;50.20;;;;;;5018542;28;19979;-69
2021/06/04 08:20:37;;;;;;;;;;;24.90;50.40;;;;;;5027325;28;19932;-69
2021/06/04 08:23:05;;;;;;;;;;;25.00;52.30;;;;;;5016641;28;20047;-68
2021/06/04 08:25:32;;;;;;;;;;;25.60;51.90;;;;;;5021911;28;19924;-71
2021/06/04 08:27:58;;;;;;;;;;;25.40;49.90;;;;;;5018477;28;20317;-70
2021/06/04 08:30:24;;;;;;;;;;;25.20;49.80;;;;;;5006520;28;19960;-69
2021/06/04 08:32:50;;;;;;;;;;;25.70;50.00;;;;;;5012959;28;19969;-70
2021/06/04 08:35:16;;;;;;;;;;;25.50;52.40;;;;;;5016286;28;20001;-70
2021/06/04 08:37:42;;;;;;;;;;;25.40;50.30;;;;;;5018199;28;19956;-71
2021/06/04 08:40:09;;;;;;;;;;;25.70;51.80;;;;;;5021291;28;20008;-69
2021/06/04 08:42:40;;;;;;;;;;;25.50;49.50;;;;;;5020942;28;20510;-68
2021/06/04 08:45:08;;;;;;;;;;;26.10;51.60;;;;;;5015184;28;20173;-71
2021/06/04 08:47:34;;;;;;;;;;;26.00;49.70;;;;;;5021488;28;20378;-70
2021/06/04 08:50:07;;;;;;;;;;;26.00;50.30;;;;;;5016370;28;19917;-71
2021/06/04 08:52:48;;;;;;;;;;;25.90;49.40;;;;;;5019739;28;19971;-69
2021/06/04 08:55:24;;;;;;;;;;;26.30;50.40;;;;;;5017194;28;19917;-71
2021/06/04 08:57:52;;;;;;;;;;;26.00;50.50;;;;;;5019615;28;20445;-70
2021/06/04 09:00:31;;;;;;;;;;;25.80;52.30;;;;;;5019587;28;20234;-69
2021/06/04 09:03:00;;;;;;;;;;;25.90;54.00;;;;;;5014383;28;19962;-72
2021/06/04 09:05:40;;;;;;;;;;;26.40;51.30;;;;;;5016061;28;20297;-69
2021/06/04 09:08:09;;;;;;;;;;;27.10;50.80;;;;;;5016092;28;20319;-70
2021/06/04 09:10:39;;;;;;;;;;;26.90;49.20;;;;;;5016027;28;20234;-68
2021/06/04 09:13:08;;;;;;;;;;;26.80;50.10;;;;;;5020383;28;19924;-70
2021/06/04 09:15:35;;;;;;;;;;;26.60;50.70;;;;;;5017572;28;19917;-69
2021/06/04 09:18:04;;;;;;;;;;;26.40;50.00;;;;;;5024918;28;19997;-69
2021/06/04 09:20:48;;;;;;;;;;;26.90;49.70;;;;;;5023765;28;20008;-69
2021/06/04 09:23:15;;;;;;;;;;;26.70;48.70;;;;;;5023448;28;19921;-72
2021/06/04 09:25:42;;;;;;;;;;;27.30;46.20;;;;;;5024720;28;20038;-69
2021/06/04 09:28:11;;;;;;;;;;;27.00;45.60;;;;;;5018484;28;19917;-69
2021/06/04 09:30:39;;;;;;;;;;;27.20;46.70;;;;;;5014890;28;19928;-71
2021/06/04 09:33:13;;;;;;;;;;;27.00;45.90;;;;;;5022084;28;19921;-70
2021/06/04 09:35:52;;;;;;;;;;;26.90;47.10;;;;;;5024953;28;19924;-71
2021/06/04 09:38:24;;;;;;;;;;;27.00;47.20;;;;;;5024901;28;20151;-70
2021/06/04 09:40:50;;;;;;;;;;;27.00;46.40;;;;;;5022409;28;20429;-71
2021/06/04 09:43:34;;;;;;;;;;;27.10;47.50;;;;;;5024984;28;19981;-70
2021/06/04 09:46:01;;;;;;;;;;;26.80;48.10;;;;;;5025495;28;19913;-71
2021/06/04 09:48:32;;;;;;;;;;;27.70;47.90;;;;;;5025766;28;19921;-71
2021/06/04 09:51:09;;;;;;;;;;;27.50;44.90;;;;;;5023896;28;19920;-71
2021/06/04 09:53:34;;;;;;;;;;;27.70;46.90;;;;;;5024137;28;19980;-71
2021/06/04 09:56:06;;;;;;;;;;;27.50;47.30;;;;;;5025014;28;19944;-72
2021/06/04 09:58:33;;;;;;;;;;;27.40;46.50;;;;;;5017365;28;20068;-70
2021/06/04 10:01:04;;;;;;;;;;;26.90;46.90;;;;;;5022188;28;19924;-70
2021/06/04 10:03:31;;;;;;;;;;;27.10;46.30;;;;;;5016377;28;19920;-68
2021/06/04 10:06:06;;;;;;;;;;;27.40;46.10;;;;;;5023659;28;19981;-72
2021/06/04 10:08:40;;;;;;;;;;;27.10;46.90;;;;;;5021871;28;20004;-70
2021/06/04 10:11:17;;;;;;;;;;;27.30;44.80;;;;;;5021226;28;19973;-70
2021/06/04 10:13:45;;;;;;;;;;;27.60;44.90;;;;;;5023446;28;20017;-70
2021/06/04 10:19:20;;;;;;;;;;;28.40;45.70;;;;;;5001522;28;20620;-70
2021/06/04 10:21:46;;;;;;;;;;;28.60;44.40;;;;;;5019051;28;19940;-70
2021/06/04 10:24:22;;;;;;;;;;;29.00;43.20;;;;;;5020538;28;19913;-71
2021/06/04 10:27:02;;;;;;;;;;;28.80;46.20;;;;;;5021049;28;20354;-70
2021/06/04 10:29:28;;;;;;;;;;;28.70;43.10;;;;;;5023132;28;20003;-71
2021/06/04 10:32:15;;;;;;;;;;;28.60;43.60;;;;;;5023519;28;19943;-71
2021/06/04 10:34:40;;;;;;;;;;;28.40;43.90;;;;;;5015362;28;19917;-71
2021/06/04 10:37:10;;;;;;;;;;;29.10;42.50;;;;;;5018300;28;20468;-70
2021/06/04 10:39:40;;;;;;;;;;;28.80;42.10;;;;;;5021866;28;19917;-70
2021/06/04 10:42:12;;;;;;;;;;;29.00;42.20;;;;;;5019207;28;19981;-70
2021/06/04 10:44:46;;;;;;;;;;;28.40;43.10;;;;;;5017037;28;19913;-67
2021/06/04 10:47:11;;;;;;;;;;;28.90;44.20;;;;;;5018125;28;19917;-70
2021/06/04 10:49:44;;;;;;;;;;;28.80;43.90;;;;;;5020826;28;19909;-68
2021/06/04 10:52:33;;;;;;;;;;;29.20;43.50;;;;;;5015369;28;19916;-71
2021/06/04 10:55:07;;;;;;;;;;;29.00;42.10;;;;;;5020406;28;20419;-70
2021/06/04 10:57:48;;;;;;;;;;;29.00;42.60;;;;;;5017322;28;19932;-73
2021/06/04 11:00:14;;;;;;;;;;;29.80;45.20;;;;;;5021111;28;19913;-71
2021/06/04 11:02:52;;;;;;;;;;;29.90;40.60;;;;;;5021108;28;20022;-71
2021/06/04 11:05:22;;;;;;;;;;;30.10;44.30;;;;;;5024262;28;19970;-70
2021/06/04 11:07:49;;;;;;;;;;;30.50;43.40;;;;;;5022272;28;20372;-70
2021/06/04 11:10:18;;;;;;;;;;;30.20;42.80;;;;;;5017905;28;19932;-71
2021/06/04 11:13:02;;;;;;;;;;;29.80;41.90;;;;;;5020355;28;19920;-72
2021/06/04 11:15:39;;;;;;;;;;;29.50;42.10;;;;;;5013183;28;20306;-70
2021/06/04 11:18:10;;;;;;;;;;;28.90;42.70;;;;;;5017894;28;19960;-72
2021/06/04 11:20:39;;;;;;;;;;;29.00;44.30;;;;;;5019985;28;20094;-71
2021/06/04 11:23:29;;;;;;;;;;;29.00;43.40;;;;;;5015799;28;20040;-72
2021/06/04 11:26:00;;;;;;;;;;;28.60;43.50;;;;;;5013635;28;20526;-70
2021/06/04 11:28:36;;;;;;;;;;;29.50;43.20;;;;;;5019391;28;19956;-71
2021/06/04 11:31:05;;;;;;;;;;;29.70;43.70;;;;;;5015901;28;19982;-72
2021/06/04 11:33:33;;;;;;;;;;;29.50;41.10;;;;;;5018970;28;19910;-72
2021/06/04 11:36:08;;;;;;;;;;;29.20;42.20;;;;;;5017751;28;19991;-70
2021/06/04 11:38:34;;;;;;;;;;;28.80;44.70;;;;;;5017162;28;19928;-70
2021/06/04 11:41:06;;;;;;;;;;;28.90;46.30;;;;;;5021988;28;19925;-71
2021/06/04 11:43:33;;;;;;;;;;;30.20;44.80;;;;;;5020034;28;20549;-70
2021/06/04 11:46:11;;;;;;;;;;;30.10;41.30;;;;;;5020865;28;20049;-71
2021/06/04 11:48:38;;;;;;;;;;;30.00;42.10;;;;;;5020104;28;20150;-70
2021/06/04 11:51:19;;;;;;;;;;;30.70;39.50;;;;;;5019192;28;20144;-71
2021/06/04 11:53:52;;;;;;;;;;;31.30;39.30;;;;;;5021107;28;20592;-73
2021/06/04 11:56:36;;;;;;;;;;;31.10;40.20;;;;;;5016494;28;19917;-69
2021/06/04 11:59:01;;;;;;;;;;;31.00;41.40;;;;;;5011904;28;20267;-69
2021/06/04 12:01:34;;;;;;;;;;;31.30;41.20;;;;;;5015622;28;19932;-72
2021/06/04 12:03:59;;;;;;;;;;;31.30;41.00;;;;;;5009864;28;19918;-70
2021/06/04 12:06:28;;;;;;;;;;;31.70;41.70;;;;;;5017662;28;19929;-71
2021/06/04 12:08:54;;;;;;;;;;;32.30;41.00;;;;;;5019168;28;19995;-72
2021/06/04 12:11:20;;;;;;;;;;;32.00;38.00;;;;;;5019979;28;19913;-70
2021/06/04 12:13:50;;;;;;;;;;;32.20;39.30;;;;;;5016608;28;19928;-73
2021/06/04 12:16:22;;;;;;;;;;;32.40;37.70;;;;;;5017990;28;20311;-71
2021/06/04 12:18:55;;;;;;;;;;;32.10;38.70;;;;;;5015627;28;20258;-72
2021/06/04 12:21:38;;;;;;;;;;;32.40;38.00;;;;;;5017321;28;19974;-71
2021/06/04 12:24:34;;;;;;;;;;;32.60;37.80;;;;;;5018766;28;19913;-71
2021/06/04 12:27:22;;;;;;;;;;;31.70;39.60;;;;;;5019157;28;20221;-71
2021/06/04 12:29:51;;;;;;;;;;;30.30;41.60;;;;;;5021589;28;19920;-69
2021/06/04 12:32:19;;;;;;;;;;;29.50;44.50;;;;;;5017580;28;19917;-70
2021/06/04 12:34:47;;;;;;;;;;;28.80;45.30;;;;;;5021897;28;20366;-71
2021/06/04 12:37:20;;;;;;;;;;;28.50;46.40;;;;;;5020591;28;20358;-72
2021/06/04 12:39:51;;;;;;;;;;;27.70;48.90;;;;;;5021167;28;19921;-72
2021/06/04 12:42:19;;;;;;;;;;;27.80;49.70;;;;;;5021814;28;20028;-70
2021/06/04 12:44:50;;;;;;;;;;;27.50;50.00;;;;;;5024216;28;20090;-70
2021/06/04 12:47:20;;;;;;;;;;;27.80;49.30;;;;;;5018630;28;21252;-71
2021/06/04 12:49:45;;;;;;;;;;;28.80;48.40;;;;;;5023629;28;19916;-71
2021/06/04 12:52:15;;;;;;;;;;;29.60;47.10;;;;;;5020526;28;19923;-71
2021/06/04 12:54:41;;;;;;;;;;;30.30;42.80;;;;;;5020738;28;19925;-71
2021/06/04 12:57:18;;;;;;;;;;;31.10;43.50;;;;;;5022183;28;20339;-72
2021/06/04 12:59:43;;;;;;;;;;;31.70;42.00;;;;;;5019257;28;20020;-71
2021/06/04 13:02:13;;;;;;;;;;;31.50;41.60;;;;;;5020719;28;20011;-70
2021/06/04 13:04:40;;;;;;;;;;;30.90;42.20;;;;;;5021802;28;19952;-71
2021/06/04 13:07:17;;;;;;;;;;;31.30;42.30;;;;;;5022830;28;20381;-71
2021/06/04 13:09:43;;;;;;;;;;;30.50;42.90;;;;;;5016108;28;20385;-69
2021/06/04 13:12:18;;;;;;;;;;;30.80;43.20;;;;;;5018444;28;20060;-71
2021/06/04 13:14:46;;;;;;;;;;;31.40;42.00;;;;;;5019666;28;19965;-70
2021/06/04 13:17:19;;;;;;;;;;;31.90;41.80;;;;;;5018486;28;19925;-72
2021/06/04 13:19:45;;;;;;;;;;;32.50;40.80;;;;;;5018153;28;20488;-71
2021/06/04 13:22:18;;;;;;;;;;;31.70;40.20;;;;;;5018172;28;19938;-70
2021/06/04 13:24:46;;;;;;;;;;;30.40;42.10;;;;;;5019070;28;20314;-70
2021/06/04 13:27:17;;;;;;;;;;;29.70;43.50;;;;;;5019579;28;19921;-71
2021/06/04 13:29:44;;;;;;;;;;;29.20;46.50;;;;;;5017933;28;20376;-68
2021/06/04 13:32:12;;;;;;;;;;;29.00;48.40;;;;;;5016842;28;20429;-70
2021/06/04 13:34:46;;;;;;;;;;;28.80;48.50;;;;;;5014194;28;19917;-70
2021/06/04 13:37:16;;;;;;;;;;;28.50;48.90;;;;;;5015321;28;20281;-69
2021/06/04 13:39:41;;;;;;;;;;;28.50;47.80;;;;;;5019001;28;19925;-71
2021/06/04 13:42:11;;;;;;;;;;;29.40;49.70;;;;;;5020342;28;19921;-70
2021/06/04 13:44:37;;;;;;;;;;;30.90;45.90;;;;;;5019319;28;19917;-70
2021/06/04 13:47:04;;;;;;;;;;;31.80;42.60;;;;;;5017508;28;19913;-70
2021/06/04 13:49:32;;;;;;;;;;;32.00;41.80;;;;;;5018941;28;19921;-73
2021/06/04 13:52:03;;;;;;;;;;;32.00;43.30;;;;;;5020446;28;19921;-70
2021/06/04 13:54:49;;;;;;;;;;;32.50;42.20;;;;;;5019707;28;19945;-70
2021/06/04 13:57:24;;;;;;;;;;;33.50;38.50;;;;;;5020064;28;20012;-69
2021/06/04 14:00:09;;;;;;;;;;;33.90;39.00;;;;;;5020343;28;19936;-70
2021/06/04 14:02:35;;;;;;;;;;;34.80;37.20;;;;;;5016013;28;19917;-73
2021/06/04 14:05:12;;;;;;;;;;;33.40;38.80;;;;;;5021850;28;20284;-73
2021/06/04 14:07:39;;;;;;;;;;;32.60;40.80;;;;;;5018527;28;19921;-72
2021/06/04 14:10:17;;;;;;;;;;;32.10;43.50;;;;;;5018133;28;20394;-73
2021/06/04 14:12:44;;;;;;;;;;;31.60;43.90;;;;;;5018255;28;19917;-73
2021/06/04 14:15:45;;;;;;;;;;;31.90;42.90;;;;;;5019622;28;20015;-74
2021/06/04 14:18:29;;;;;;;;;;;32.70;43.10;;;;;;4993609;28;20250;-72
2021/06/04 14:20:55;;;;;;;;;;;33.20;41.20;;;;;;5030978;28;19924;-72
2021/06/04 14:23:28;;;;;;;;;;;33.50;39.00;;;;;;5020989;28;20467;-69
2021/06/04 14:26:13;;;;;;;;;;;34.40;37.60;;;;;;5015866;28;20480;-71
2021/06/04 14:28:38;;;;;;;;;;;34.50;36.70;;;;;;5019359;28;19917;-70
2021/06/04 14:31:05;;;;;;;;;;;35.00;38.20;;;;;;5021148;28;19913;-71